createdAt,value
2022-10-15T00:01:48.151Z,99786.19
2022-10-15T00:04:17.568Z,99788.03
2022-10-15T00:06:45.814Z,99785.56
2022-10-15T00:09:13.929Z,99783.91
2022-10-15T00:11:41.993Z,99781.44
2022-10-15T00:14:10.106Z,99776.31
2022-10-15T00:16:38.136Z,99770.59
2022-10-15T00:19:06.466Z,99767.31
2022-10-15T00:21:35.919Z,99774.91
2022-10-15T00:24:04.005Z,99763.63
2022-10-15T00:26:32.280Z,99764.66
2022-10-15T00:29:02.294Z,99753.56
2022-10-15T00:31:32.676Z,99754.44
2022-10-15T00:34:02.759Z,99751.16
2022-10-15T00:36:33.677Z,99741.50
2022-10-15T00:39:05.065Z,99751.56
2022-10-15T00:41:35.827Z,99748.06
2022-10-15T00:44:24.564Z,99739.44
2022-10-15T00:46:55.723Z,99736.63
2022-10-15T00:49:27.228Z,99737.66
2022-10-15T00:52:00.907Z,99730.06
2022-10-15T00:54:34.284Z,99722.03
2022-10-15T00:57:03.009Z,99719.38
2022-10-15T00:59:32.989Z,99718.53
2022-10-15T01:02:02.274Z,99710.31
2022-10-15T01:04:32.263Z,99712.19
2022-10-15T01:07:00.597Z,99706.00
2022-10-15T01:09:30.224Z,99710.75
2022-10-15T01:11:58.953Z,99702.94
2022-10-15T01:14:37.865Z,99700.47
2022-10-15T01:17:11.968Z,99700.25
2022-10-15T01:20:06.771Z,99694.47
2022-10-15T01:22:47.457Z,99677.63
2022-10-15T01:25:32.835Z,99695.66
2022-10-15T01:28:18.064Z,99686.75
2022-10-15T01:30:51.409Z,99687.16
2022-10-15T01:33:29.041Z,99682.81
2022-10-15T01:36:06.497Z,99683.19
2022-10-15T01:38:47.615Z,99683.56
2022-10-15T01:41:20.737Z,99685.00
2022-10-15T01:43:57.444Z,99678.22
2022-10-15T01:46:32.137Z,99685.19
2022-10-15T01:49:02.173Z,99675.91
2022-10-15T01:51:31.967Z,99673.63
2022-10-15T01:54:01.775Z,99664.78
2022-10-15T01:56:31.116Z,99669.69
2022-10-15T01:59:00.609Z,99669.28
2022-10-15T02:01:30.454Z,99656.72
2022-10-15T02:03:58.701Z,99653.00
2022-10-15T02:06:32.282Z,99644.78
2022-10-15T02:09:16.663Z,99645.34
2022-10-15T02:11:59.991Z,99635.13
2022-10-15T02:14:34.926Z,99636.16
2022-10-15T02:17:09.602Z,99630.19
2022-10-15T02:19:45.100Z,99634.91
2022-10-15T02:22:19.070Z,99626.88
2022-10-15T02:24:55.359Z,99623.97
2022-10-15T02:27:25.821Z,99631.16
2022-10-15T02:29:56.286Z,99620.47
2022-10-15T02:32:27.690Z,99614.69
2022-10-15T02:34:57.041Z,99616.31
2022-10-15T02:37:29.154Z,99613.00
2022-10-15T02:39:57.278Z,99604.16
2022-10-15T02:42:26.288Z,99591.16
2022-10-15T02:44:55.006Z,99593.03
2022-10-15T02:47:23.214Z,99597.34
2022-10-15T02:49:52.720Z,99592.56
2022-10-15T02:52:21.045Z,99586.16
2022-10-15T02:54:49.204Z,99587.38
2022-10-15T02:57:17.244Z,99577.06
2022-10-15T02:59:45.445Z,99577.41
2022-10-15T03:02:16.809Z,99572.66
2022-10-15T03:04:47.270Z,99579.19
2022-10-15T03:07:16.797Z,99577.72
2022-10-15T03:09:44.833Z,99566.19
2022-10-15T03:12:12.947Z,99570.03
2022-10-15T03:14:40.971Z,99563.22
2022-10-15T03:17:09.018Z,99563.81
2022-10-15T03:19:37.322Z,99554.31
2022-10-15T03:22:06.160Z,99554.66
2022-10-15T03:24:35.766Z,99555.03
2022-10-15T03:27:03.988Z,99541.25
2022-10-15T03:29:32.250Z,99552.72
2022-10-15T03:32:01.191Z,99555.41
2022-10-15T03:34:30.210Z,99555.19
2022-10-15T03:36:58.251Z,99545.94
2022-10-15T03:39:26.305Z,99535.47
2022-10-15T03:41:55.958Z,99538.16
2022-10-15T03:44:24.371Z,99547.22
2022-10-15T03:46:52.552Z,99542.34
2022-10-15T03:49:20.746Z,99546.63
2022-10-15T03:51:48.932Z,99544.19
2022-10-15T03:54:17.312Z,99543.94
2022-10-15T03:56:45.459Z,99551.75
2022-10-15T03:59:16.447Z,99539.66
2022-10-15T04:01:45.141Z,99545.72
2022-10-15T04:04:13.466Z,99547.75
2022-10-15T04:06:41.783Z,99541.34
2022-10-15T04:09:12.444Z,99535.19
2022-10-15T04:11:40.819Z,99536.50
2022-10-15T04:14:09.005Z,99524.38
2022-10-15T04:16:38.824Z,99522.06
2022-10-15T04:19:08.781Z,99532.88
2022-10-15T04:21:39.230Z,99523.47
2022-10-15T04:24:07.560Z,99520.56
2022-10-15T04:26:35.763Z,99510.66
2022-10-15T04:29:03.906Z,99511.25
2022-10-15T04:31:32.354Z,99510.41
2022-10-15T04:34:01.942Z,99507.28
2022-10-15T04:36:29.999Z,99507.06
2022-10-15T04:38:58.906Z,99510.34
2022-10-15T04:41:27.120Z,99511.75
2022-10-15T04:43:55.809Z,99513.13
2022-10-15T04:46:23.984Z,99508.03
2022-10-15T04:48:52.776Z,99509.66
2022-10-15T04:51:23.478Z,99504.31
2022-10-15T04:53:51.655Z,99491.22
2022-10-15T04:56:22.525Z,99483.78
2022-10-15T04:58:51.548Z,99484.13
2022-10-15T05:01:27.344Z,99483.41
2022-10-15T05:03:55.511Z,99481.78
2022-10-15T05:06:25.198Z,99491.78
2022-10-15T05:08:53.457Z,99486.06
2022-10-15T05:11:23.446Z,99485.47
2022-10-15T05:13:52.469Z,99484.88
2022-10-15T05:16:22.904Z,99476.97
2022-10-15T05:18:52.378Z,99478.16
2022-10-15T05:21:22.060Z,99486.41
2022-10-15T05:23:52.100Z,99481.94
2022-10-15T05:26:22.013Z,99482.16
2022-10-15T05:28:50.451Z,99479.50
2022-10-15T05:31:22.136Z,99477.28
2022-10-15T05:33:51.204Z,99477.28
2022-10-15T05:36:22.189Z,99467.41
2022-10-15T05:38:53.333Z,99465.16
2022-10-15T05:41:22.126Z,99465.75
2022-10-15T05:43:51.503Z,99457.00
2022-10-15T05:46:20.886Z,99464.72
2022-10-15T05:48:50.515Z,99466.59
2022-10-15T05:51:19.509Z,99461.78
2022-10-15T05:53:47.868Z,99464.84
2022-10-15T05:56:17.731Z,99453.53
2022-10-15T05:58:45.764Z,99462.91
2022-10-15T06:01:14.866Z,99462.91
2022-10-15T06:03:43.822Z,99458.47
2022-10-15T06:06:17.473Z,99459.44
2022-10-15T06:08:45.890Z,99453.03
2022-10-15T06:11:14.115Z,99468.63
2022-10-15T06:13:45.168Z,99463.28
2022-10-15T06:16:31.905Z,99454.19
2022-10-15T06:19:00.185Z,99456.78
2022-10-15T06:21:28.515Z,99462.03
2022-10-15T06:23:56.602Z,99456.00
2022-10-15T06:26:24.657Z,99449.38
2022-10-15T06:28:58.297Z,99453.22
2022-10-15T06:31:29.885Z,99443.78
2022-10-15T06:33:58.817Z,99449.38
2022-10-15T06:36:27.030Z,99446.47
2022-10-15T06:38:55.067Z,99440.16
2022-10-15T06:41:23.183Z,99449.38
2022-10-15T06:46:25.924Z,99446.59
2022-10-15T06:48:56.110Z,99449.78
2022-10-15T06:51:24.187Z,99428.34
2022-10-15T06:53:52.443Z,99448.72
2022-10-15T06:56:20.627Z,99440.09
2022-10-15T06:58:49.134Z,99441.63
2022-10-15T07:01:17.356Z,99441.13
2022-10-15T07:03:50.534Z,99439.63
2022-10-15T07:06:19.382Z,99446.38
2022-10-15T07:08:47.655Z,99451.28
2022-10-15T07:11:15.767Z,99444.97
2022-10-15T07:13:44.689Z,99458.59
2022-10-15T07:16:13.958Z,99449.50
2022-10-15T07:18:42.162Z,99442.03
2022-10-15T07:21:11.845Z,99450.53
2022-10-15T07:23:40.953Z,99448.31
2022-10-15T07:26:09.154Z,99452.25
2022-10-15T07:28:37.570Z,99452.94
2022-10-15T07:31:07.446Z,99452.91
2022-10-15T07:33:52.514Z,99449.03
2022-10-15T07:36:21.975Z,99446.75
2022-10-15T07:38:50.166Z,99453.28
2022-10-15T07:41:18.517Z,99452.09
2022-10-15T07:43:47.019Z,99444.69
2022-10-15T07:46:15.253Z,99441.88
2022-10-15T07:48:43.927Z,99434.63
2022-10-15T07:51:13.001Z,99440.09
2022-10-15T07:53:44.063Z,99437.16
2022-10-15T07:56:13.808Z,99433.78
2022-10-15T07:58:43.101Z,99441.44
2022-10-15T08:01:12.347Z,99431.09
2022-10-15T08:03:40.552Z,99441.44
2022-10-15T08:06:09.597Z,99433.22
2022-10-15T08:08:38.641Z,99437.88
2022-10-15T08:11:09.388Z,99428.25
2022-10-15T08:13:39.080Z,99420.94
2022-10-15T08:16:07.610Z,99440.94
2022-10-15T08:18:36.551Z,99434.50
2022-10-15T08:21:06.259Z,99429.38
2022-10-15T08:23:34.817Z,99437.53
2022-10-15T08:26:03.851Z,99428.66
2022-10-15T08:28:34.858Z,99430.28
2022-10-15T08:31:05.622Z,99422.72
2022-10-15T08:33:35.011Z,99429.63
2022-10-15T08:36:06.149Z,99423.50
2022-10-15T08:38:34.667Z,99425.47
2022-10-15T08:41:07.670Z,99431.34
2022-10-15T08:43:39.672Z,99420.25
2022-10-15T08:46:13.494Z,99423.84
2022-10-15T08:48:45.896Z,99423.28
2022-10-15T08:51:21.104Z,99423.28
2022-10-15T08:53:53.736Z,99427.06
2022-10-15T08:56:25.392Z,99436.13
2022-10-15T08:59:03.166Z,99428.88
2022-10-15T09:01:38.879Z,99428.44
2022-10-15T09:04:24.142Z,99433.66
2022-10-15T09:06:56.884Z,99432.31
2022-10-15T09:09:31.580Z,99432.06
2022-10-15T09:12:08.400Z,99438.00
2022-10-15T09:14:42.595Z,99439.66
2022-10-15T09:17:21.554Z,99432.19
2022-10-15T09:19:53.209Z,99430.47
2022-10-15T09:22:25.574Z,99448.63
2022-10-15T09:24:54.749Z,99429.66
2022-10-15T09:27:32.646Z,99436.03
2022-10-15T09:30:08.324Z,99435.56
2022-10-15T09:32:41.837Z,99435.31
2022-10-15T09:35:18.354Z,99430.19
2022-10-15T09:37:52.073Z,99435.88
2022-10-15T09:40:35.314Z,99439.34
2022-10-15T09:43:06.161Z,99429.50
2022-10-15T09:45:35.717Z,99443.53
2022-10-15T09:48:15.127Z,99438.16
2022-10-15T09:50:48.145Z,99440.34
2022-10-15T09:53:24.540Z,99439.84
2022-10-15T09:56:03.348Z,99430.69
2022-10-15T09:58:38.738Z,99443.31
2022-10-15T10:01:17.735Z,99429.50
2022-10-15T10:03:45.984Z,99435.91
2022-10-15T10:06:15.862Z,99438.53
2022-10-15T10:08:52.066Z,99444.25
2022-10-15T10:11:21.825Z,99445.03
2022-10-15T10:13:55.209Z,99432.47
2022-10-15T10:16:25.460Z,99457.25
2022-10-15T10:19:13.084Z,99446.97
2022-10-15T10:21:43.004Z,99450.72
2022-10-15T10:24:30.808Z,99457.34
2022-10-15T10:26:59.506Z,99450.06
2022-10-15T10:29:34.146Z,99451.72
2022-10-15T10:32:12.525Z,99446.38
2022-10-15T10:34:49.995Z,99461.28
2022-10-15T10:37:21.811Z,99451.31
2022-10-15T10:40:06.098Z,99449.94
2022-10-15T10:42:38.412Z,99455.59
2022-10-15T10:45:19.944Z,99459.06
2022-10-15T10:47:49.956Z,99452.53
2022-10-15T10:50:31.315Z,99466.31
2022-10-15T10:53:00.248Z,99466.31
2022-10-15T10:55:38.549Z,99454.09
2022-10-15T10:58:06.821Z,99466.50
2022-10-15T11:00:43.066Z,99468.41
2022-10-15T11:03:27.810Z,99460.84
2022-10-15T11:06:13.697Z,99463.53
2022-10-15T11:08:52.374Z,99463.06
2022-10-15T11:11:26.747Z,99475.53
2022-10-15T11:14:05.007Z,99464.72
2022-10-15T11:16:40.192Z,99472.28
2022-10-15T11:19:50.363Z,99459.88
2022-10-15T11:22:48.579Z,99454.78
2022-10-15T11:25:24.538Z,99458.06
2022-10-15T11:28:07.099Z,99453.25
2022-10-15T11:30:51.085Z,99455.44
2022-10-15T11:33:41.646Z,99447.84
2022-10-15T11:36:34.750Z,99452.69
2022-10-15T11:39:20.309Z,99456.34
2022-10-15T11:41:57.073Z,99448.44
2022-10-15T11:44:40.234Z,99455.47
2022-10-15T11:47:27.366Z,99450.69
2022-10-15T11:50:09.867Z,99443.22
2022-10-15T11:52:55.240Z,99450.31
2022-10-15T11:55:29.214Z,99447.91
2022-10-15T11:58:03.267Z,99439.81
2022-10-15T12:00:35.724Z,99441.69
2022-10-15T12:03:11.116Z,99448.81
2022-10-15T12:05:44.601Z,99441.28
2022-10-15T12:08:14.980Z,99437.25
2022-10-15T12:11:07.830Z,99448.91
2022-10-15T12:13:42.236Z,99440.03
2022-10-15T12:16:25.088Z,99442.72
2022-10-15T12:19:04.857Z,99427.81
2022-10-15T12:21:37.089Z,99440.84
2022-10-15T12:24:28.004Z,99433.59
2022-10-15T12:26:56.216Z,99433.88
2022-10-15T12:29:39.751Z,99436.97
2022-10-15T12:32:25.281Z,99425.09
2022-10-15T12:34:58.312Z,99439.19
2022-10-15T12:37:29.978Z,99438.91
2022-10-15T12:40:03.546Z,99426.22
2022-10-15T12:42:34.748Z,99438.41
2022-10-15T12:45:06.077Z,99442.97
2022-10-15T12:47:51.351Z,99447.56
2022-10-15T12:50:21.289Z,99444.03
2022-10-15T12:52:57.673Z,99448.38
2022-10-15T12:55:30.794Z,99440.81
2022-10-15T12:58:04.861Z,99451.63
2022-10-15T13:00:44.251Z,99447.81
2022-10-15T13:03:19.629Z,99447.00
2022-10-15T13:05:50.189Z,99458.06
2022-10-15T13:08:24.550Z,99456.19
2022-10-15T13:10:57.160Z,99447.53
2022-10-15T13:13:29.391Z,99458.63
2022-10-15T13:16:15.582Z,99450.78
2022-10-15T13:18:49.481Z,99454.28
2022-10-15T13:21:17.671Z,99454.28
2022-10-15T13:23:51.035Z,99449.41
2022-10-15T13:26:23.230Z,99453.72
2022-10-15T13:28:54.198Z,99456.13
2022-10-15T13:31:30.295Z,99451.78
2022-10-15T13:34:02.710Z,99446.09
2022-10-15T13:36:34.097Z,99460.09
2022-10-15T13:39:07.239Z,99466.03
2022-10-15T13:41:40.872Z,99469.84
2022-10-15T13:44:22.230Z,99451.50
2022-10-15T13:47:00.287Z,99454.25
2022-10-15T13:49:28.977Z,99442.09
2022-10-15T13:51:57.613Z,99456.19
2022-10-15T13:54:31.546Z,99459.69
2022-10-15T13:57:07.111Z,99464.03
2022-10-15T13:59:35.522Z,99462.97
2022-10-15T14:02:04.867Z,99467.84
2022-10-15T14:04:34.569Z,99462.44
2022-10-15T14:07:05.452Z,99459.72
2022-10-15T14:09:35.421Z,99461.06
2022-10-15T14:12:07.947Z,99462.41
2022-10-15T14:14:37.721Z,99455.09
2022-10-15T14:17:09.161Z,99465.66
2022-10-15T14:19:39.568Z,99459.97
2022-10-15T14:22:08.362Z,99461.03
2022-10-15T14:24:41.600Z,99465.09
2022-10-15T14:27:16.839Z,99466.47
2022-10-15T14:29:47.071Z,99467.28
2022-10-15T14:32:21.382Z,99468.91
2022-10-15T14:34:49.958Z,99461.88
2022-10-15T14:37:40.329Z,99450.50
2022-10-15T14:40:21.787Z,99457.53
2022-10-15T14:43:04.208Z,99455.13
2022-10-15T14:45:37.668Z,99445.66
2022-10-15T14:48:12.617Z,99444.31
2022-10-15T14:50:44.474Z,99447.81
2022-10-15T14:53:20.062Z,99450.00
2022-10-15T14:55:52.526Z,99452.69
2022-10-15T14:58:24.730Z,99451.88
2022-10-15T15:00:58.410Z,99456.19
2022-10-15T15:03:30.381Z,99452.09
2022-10-15T15:05:59.608Z,99439.34
2022-10-15T15:08:28.205Z,99445.84
2022-10-15T15:10:59.324Z,99447.66
2022-10-15T15:13:31.830Z,99449.53
2022-10-15T15:16:00.175Z,99439.25
2022-10-15T15:18:28.523Z,99444.34
2022-10-15T15:21:01.059Z,99457.03
2022-10-15T15:23:30.646Z,99460.78
2022-10-15T15:25:58.740Z,99453.44
2022-10-15T15:28:30.152Z,99462.63
2022-10-15T15:31:00.215Z,99452.84
2022-10-15T15:33:31.080Z,99450.09
2022-10-15T15:36:03.397Z,99474.13
2022-10-15T15:38:32.260Z,99466.00
2022-10-15T15:41:05.091Z,99468.69
2022-10-15T15:43:35.175Z,99468.41
2022-10-15T15:46:09.514Z,99461.59
2022-10-15T15:48:38.004Z,99462.94
2022-10-15T15:51:11.651Z,99464.28
2022-10-15T15:53:39.787Z,99453.16
2022-10-15T15:56:08.475Z,99478.78
2022-10-15T15:58:39.757Z,99463.91
2022-10-15T16:01:07.993Z,99468.19
2022-10-15T16:03:36.599Z,99468.41
2022-10-15T16:06:07.212Z,99476.22
2022-10-15T16:08:36.276Z,99476.44
2022-10-15T16:11:05.384Z,99484.72
2022-10-15T16:13:33.811Z,99473.84
2022-10-15T16:16:03.578Z,99474.56
2022-10-15T16:18:32.108Z,99474.78
2022-10-15T16:21:00.333Z,99482.75
2022-10-15T16:23:28.515Z,99475.88
2022-10-15T16:25:57.623Z,99475.78
2022-10-15T16:28:25.953Z,99483.75
2022-10-15T16:30:54.232Z,99494.97
2022-10-15T16:33:24.150Z,99492.97
2022-10-15T16:35:54.157Z,99484.19
2022-10-15T16:38:30.222Z,99486.88
2022-10-15T16:40:58.438Z,99502.47
2022-10-15T16:43:26.541Z,99488.94
2022-10-15T16:45:56.981Z,99489.41
2022-10-15T16:48:28.185Z,99475.00
2022-10-15T16:51:03.578Z,99496.53
2022-10-15T16:53:33.080Z,99495.66
2022-10-15T16:56:02.535Z,99507.72
2022-10-15T16:58:31.908Z,99508.41
2022-10-15T17:01:01.084Z,99501.88
2022-10-15T17:03:31.225Z,99510.44
2022-10-15T17:05:59.539Z,99504.66
2022-10-15T17:08:35.680Z,99513.88
2022-10-15T17:11:04.347Z,99516.81
2022-10-15T17:13:34.175Z,99524.06
2022-10-15T17:16:10.005Z,99516.81
2022-10-15T17:18:40.862Z,99513.06
2022-10-15T17:21:13.417Z,99524.88
2022-10-15T17:23:42.065Z,99520.84
2022-10-15T17:26:12.175Z,99513.59
2022-10-15T17:28:41.846Z,99519.56
2022-10-15T17:31:11.310Z,99498.22
2022-10-15T17:33:44.334Z,99500.72
2022-10-15T17:36:14.296Z,99492.34
2022-10-15T17:38:42.829Z,99486.66
2022-10-15T17:41:12.951Z,99497.97
2022-10-15T17:43:41.581Z,99488.19
2022-10-15T17:46:13.135Z,99491.88
2022-10-15T17:48:44.225Z,99493.41
2022-10-15T17:51:14.752Z,99496.59
2022-10-15T17:53:43.297Z,99502.97
2022-10-15T17:56:13.161Z,99496.19
2022-10-15T17:58:41.580Z,99503.34
2022-10-15T18:01:14.805Z,99505.16
2022-10-15T18:03:45.717Z,99502.94
2022-10-15T18:06:15.359Z,99501.56
2022-10-15T18:08:43.503Z,99502.03
2022-10-15T18:11:12.880Z,99509.28
2022-10-15T18:13:41.056Z,99508.63
2022-10-15T18:16:09.665Z,99521.59
2022-10-15T18:18:38.897Z,99519.16
2022-10-15T18:21:12.695Z,99523.94
2022-10-15T18:23:40.997Z,99519.16
2022-10-15T18:26:17.143Z,99520.19
2022-10-15T18:28:49.457Z,99512.94
2022-10-15T18:31:18.409Z,99521.41
2022-10-15T18:33:51.728Z,99515.56
2022-10-15T18:36:24.109Z,99510.25
2022-10-15T18:38:52.738Z,99510.84
2022-10-15T18:41:23.875Z,99501.00
2022-10-15T18:43:52.973Z,99508.34
2022-10-15T18:46:21.453Z,99505.38
2022-10-15T18:48:51.175Z,99499.53
2022-10-15T18:51:21.241Z,99499.75
2022-10-15T18:53:49.460Z,99497.06
2022-10-15T18:56:17.595Z,99505.66
2022-10-15T18:58:45.811Z,99517.94
2022-10-15T19:01:20.820Z,99506.03
2022-10-15T19:03:52.840Z,99504.09
2022-10-15T19:06:24.182Z,99494.53
2022-10-15T19:08:52.939Z,99483.16
2022-10-15T19:11:21.286Z,99485.84
2022-10-15T19:13:49.712Z,99486.31
2022-10-15T19:16:18.005Z,99491.59
2022-10-15T19:18:46.223Z,99490.72
2022-10-15T19:21:14.447Z,99492.81
2022-10-15T19:23:44.009Z,99491.56
2022-10-15T19:26:14.033Z,99490.88
2022-10-15T19:28:42.391Z,99508.38
2022-10-15T19:31:14.673Z,99508.84
2022-10-15T19:33:43.764Z,99511.69
2022-10-15T19:36:11.942Z,99508.91
2022-10-15T19:38:40.117Z,99506.69
2022-10-15T19:41:09.954Z,99515.56
2022-10-15T19:43:38.209Z,99520.03
2022-10-15T19:46:06.645Z,99512.00
2022-10-15T19:48:34.946Z,99521.31
2022-10-15T19:51:03.605Z,99523.66
2022-10-15T19:53:32.347Z,99521.78
2022-10-15T19:56:02.847Z,99521.22
2022-10-15T19:58:33.431Z,99523.66
2022-10-15T20:01:02.180Z,99508.84
2022-10-15T20:03:31.486Z,99514.22
2022-10-15T20:05:59.736Z,99505.09
2022-10-15T20:08:28.066Z,99506.97
2022-10-15T20:10:56.241Z,99509.91
2022-10-15T20:13:24.764Z,99513.75
2022-10-15T20:15:56.825Z,99501.72
2022-10-15T20:18:25.002Z,99500.66
2022-10-15T20:20:53.191Z,99494.72
2022-10-15T20:23:22.630Z,99502.03
2022-10-15T20:25:51.223Z,99478.59
2022-10-15T20:28:20.018Z,99494.31
2022-10-15T20:30:49.953Z,99491.41
2022-10-15T20:33:19.527Z,99493.84
2022-10-15T20:35:50.598Z,99490.94
2022-10-15T20:38:18.690Z,99484.50
2022-10-15T20:40:47.127Z,99483.69
2022-10-15T20:43:15.455Z,99487.19
2022-10-15T20:45:45.944Z,99490.22
2022-10-15T20:48:22.162Z,99493.72
2022-10-15T20:50:52.215Z,99494.50
2022-10-15T20:53:23.361Z,99493.44
2022-10-15T20:55:51.993Z,99499.63
2022-10-15T20:58:20.485Z,99501.50
2022-10-15T21:00:48.835Z,99492.91
2022-10-15T21:03:16.882Z,99501.50
2022-10-15T21:05:46.999Z,99512.59
2022-10-15T21:08:15.635Z,99500.47
2022-10-15T21:10:43.877Z,99498.81
2022-10-15T21:13:12.017Z,99504.53
2022-10-15T21:15:40.064Z,99494.28
2022-10-15T21:18:08.227Z,99494.03
2022-10-15T21:20:36.579Z,99495.91
2022-10-15T21:23:06.062Z,99498.00
2022-10-15T21:25:35.438Z,99506.06
2022-10-15T21:28:03.760Z,99503.72
2022-10-15T21:30:32.402Z,99503.13
2022-10-15T21:33:00.719Z,99502.66
2022-10-15T21:35:29.975Z,99500.69
2022-10-15T21:37:58.110Z,99489.06
2022-10-15T21:40:27.651Z,99493.13
2022-10-15T21:42:55.837Z,99487.91
2022-10-15T21:45:23.946Z,99494.78
2022-10-15T21:47:52.275Z,99494.47
2022-10-15T21:50:20.457Z,99490.75
2022-10-15T21:52:48.736Z,99497.16
2022-10-15T21:55:16.982Z,99493.31
2022-10-15T21:57:50.709Z,99478.25
2022-10-15T22:00:19.201Z,99490.97
2022-10-15T22:02:51.151Z,99496.34
2022-10-15T22:05:19.289Z,99496.59
2022-10-15T22:07:47.440Z,99496.59
2022-10-15T22:10:16.253Z,99484.78
2022-10-15T22:12:44.313Z,99484.31
2022-10-15T22:15:13.769Z,99475.56
2022-10-15T22:17:41.954Z,99483.75
2022-10-15T22:20:11.089Z,99497.25
2022-10-15T22:22:39.343Z,99483.59
2022-10-15T22:25:07.997Z,99484.97
2022-10-15T22:27:36.519Z,99482.88
2022-10-15T22:30:05.306Z,99475.53
2022-10-15T22:32:35.122Z,99487.91
2022-10-15T22:35:03.289Z,99484.63
2022-10-15T22:37:31.662Z,99482.91
2022-10-15T22:39:59.861Z,99487.94
2022-10-15T22:42:28.319Z,99499.25
2022-10-15T22:44:56.965Z,99491.69
2022-10-15T22:47:25.163Z,99488.66
2022-10-15T22:49:54.766Z,99489.38
2022-10-15T22:52:23.021Z,99491.72
2022-10-15T22:54:51.850Z,99475.84
2022-10-15T22:57:21.350Z,99473.41
2022-10-15T22:59:49.472Z,99472.59
2022-10-15T23:02:21.177Z,99470.97
2022-10-15T23:04:49.604Z,99477.38
2022-10-15T23:07:19.116Z,99476.91
2022-10-15T23:09:47.237Z,99473.41
2022-10-15T23:12:15.335Z,99476.78
2022-10-15T23:14:43.538Z,99481.41
2022-10-15T23:17:11.760Z,99470.22
2022-10-15T23:19:39.934Z,99479.06
2022-10-15T23:22:10.155Z,99462.16
2022-10-15T23:24:39.877Z,99463.22
2022-10-15T23:27:07.993Z,99472.06
2022-10-15T23:29:36.626Z,99464.25
2022-10-15T23:32:04.958Z,99472.06
2022-10-15T23:34:33.084Z,99460.63
2022-10-15T23:37:02.438Z,99453.97
2022-10-15T23:39:36.830Z,99445.66
2022-10-15T23:42:06.465Z,99461.03
2022-10-15T23:44:35.245Z,99450.88
2022-10-15T23:47:03.333Z,99445.84
2022-10-15T23:49:31.455Z,99444.81
2022-10-15T23:51:59.702Z,99440.78
2022-10-15T23:54:27.824Z,99422.81
2022-10-15T23:56:55.981Z,99424.94
2022-10-15T23:59:25.667Z,99431.13
